Station History

Weather Underground - logo

Station Historical Data
Daily Summary for February 26, 2018 Units:  Both    English   Metric
« Previous Day
Next Day »
Daily Weekly Monthly Yearly Custom
  High: Low: Average:
Temperature: 58.1 °F /  14.5 °C 33.0 °F /  0.6 °C 45.5 °F /  7.5 °C
Dew Point: 43.0 °F /  6.1 °C 29.4 °F /  -1.4 °C 35.7 °F /  2.1 °C
Humidity: 94 % 41 % 72 %
Wind Speed: 9.0 mph /  14.5 km/h - 1 mph /  1.6 km/h
Wind Gust: 9.0 mph /  14.5 km/h - -
Wind:- - SW
Pressure: 30.19 in /  1022.2 hPa 29.88 in /  1011.7 hPa -
Precipitation: 0.23 in /  5.84 mm    
Historical Graphs
 
 
Tabular Data for February 26, 2018
Time Temperature Dew Point Pressure Wind Wind Speed Wind Gust Humidity Rainfall Rate (Hourly)
00:02 38.1 °F /  3.4 °C 32.8 °F /  0.4 °C 30.19 in /  1022.2 hPa Calm     81 % 0.00 in /  0 mm
00:08 38.1 °F /  3.4 °C 32.8 °F /  0.4 °C 30.19 in /  1022.2 hPa Calm     81 % 0.00 in /  0 mm
00:13 37.9 °F /  3.3 °C 32.6 °F /  0.3 °C 30.19 in /  1022.2 hPa Calm     81 % 0.00 in /  0 mm
00:18 37.5 °F /  3.1 °C 32.2 °F /  0.1 °C 30.19 in /  1022.2 hPa Calm     81 % 0.00 in /  0 mm
00:23 37.2 °F /  2.9 °C 32.2 °F /  0.1 °C 30.19 in /  1022.2 hPa Calm     82 % 0.00 in /  0 mm
00:28 37.0 °F /  2.8 °C 31.7 °F /  -0.2 °C 30.19 in /  1022.2 hPa Calm     81 % 0.00 in /  0 mm
00:33 36.9 °F /  2.7 °C 32.2 °F /  0.1 °C 30.19 in /  1022.2 hPa Calm     83 % 0.00 in /  0 mm
00:38 36.7 °F /  2.6 °C 32.0 °F /  0 °C 30.18 in /  1021.9 hPa Calm     83 % 0.00 in /  0 mm
00:43 36.7 °F /  2.6 °C 32.3 °F /  0.2 °C 30.18 in /  1021.9 hPa Calm     84 % 0.00 in /  0 mm
00:48 36.5 °F /  2.5 °C 31.8 °F /  -0.1 °C 30.18 in /  1021.9 hPa Calm     83 % 0.00 in /  0 mm
00:53 36.3 °F /  2.4 °C 31.9 °F /  -0.1 °C 30.18 in /  1021.9 hPa Calm     84 % 0.00 in /  0 mm
00:58 36.2 °F /  2.3 °C 31.5 °F /  -0.3 °C 30.18 in /  1021.9 hPa Calm     83 % 0.00 in /  0 mm
01:03 36.0 °F /  2.2 °C 31.6 °F /  -0.2 °C 30.18 in /  1021.9 hPa Calm     84 % 0.00 in /  0 mm
01:08 35.9 °F /  2.2 °C 31.5 °F /  -0.3 °C 30.18 in /  1021.9 hPa Calm     84 % 0.00 in /  0 mm
01:13 35.8 °F /  2.1 °C 31.7 °F /  -0.2 °C 30.18 in /  1021.9 hPa Calm     85 % 0.00 in /  0 mm
01:18 35.8 °F /  2.1 °C 31.7 °F /  -0.2 °C 30.17 in /  1021.6 hPa Calm     85 % 0.00 in /  0 mm
01:23 36.4 °F /  2.4 °C 32.3 °F /  0.2 °C 30.18 in /  1021.9 hPa Calm     85 % 0.00 in /  0 mm
01:28 36.7 °F /  2.6 °C 32.3 °F /  0.2 °C 30.18 in /  1021.9 hPa Calm     84 % 0.00 in /  0 mm
01:33 36.7 °F /  2.6 °C 32.0 °F /  0 °C 30.17 in /  1021.6 hPa Calm     83 % 0.00 in /  0 mm
01:38 36.4 °F /  2.4 °C 31.4 °F /  -0.3 °C 30.17 in /  1021.6 hPa Calm     82 % 0.00 in /  0 mm
01:43 36.1 °F /  2.3 °C 31.4 °F /  -0.3 °C 30.17 in /  1021.6 hPa Calm     83 % 0.00 in /  0 mm
01:48 36.0 °F /  2.2 °C 31.6 °F /  -0.2 °C 30.17 in /  1021.6 hPa Calm     84 % 0.00 in /  0 mm
01:53 35.9 °F /  2.2 °C 31.5 °F /  -0.3 °C 30.17 in /  1021.6 hPa Calm     84 % 0.00 in /  0 mm
01:58 35.8 °F /  2.1 °C 31.4 °F /  -0.3 °C 30.16 in /  1021.2 hPa Calm     84 % 0.00 in /  0 mm
02:03 35.6 °F /  2 °C 31.5 °F /  -0.3 °C 30.16 in /  1021.2 hPa Calm     85 % 0.00 in /  0 mm
02:08 35.5 °F /  1.9 °C 31.4 °F /  -0.3 °C 30.16 in /  1021.2 hPa Calm     85 % 0.00 in /  0 mm
02:13 35.2 °F /  1.8 °C 30.9 °F /  -0.6 °C 30.16 in /  1021.2 hPa Calm     84 % 0.00 in /  0 mm
02:18 34.9 °F /  1.6 °C 30.6 °F /  -0.8 °C 30.16 in /  1021.2 hPa Calm     84 % 0.00 in /  0 mm
02:23 34.5 °F /  1.4 °C 29.9 °F /  -1.2 °C 30.15 in /  1020.9 hPa Calm     83 % 0.00 in /  0 mm
02:28 34.1 °F /  1.2 °C 29.8 °F /  -1.2 °C 30.15 in /  1020.9 hPa Calm     84 % 0.00 in /  0 mm
02:33 33.8 °F /  1 °C 29.8 °F /  -1.2 °C 30.15 in /  1020.9 hPa Calm     85 % 0.00 in /  0 mm
02:38 33.9 °F /  1.1 °C 30.2 °F /  -1 °C 30.15 in /  1020.9 hPa Calm     86 % 0.00 in /  0 mm
02:43 34.0 °F /  1.1 °C 30.3 °F /  -0.9 °C 30.15 in /  1020.9 hPa Calm     86 % 0.00 in /  0 mm
02:48 33.9 °F /  1.1 °C 30.2 °F /  -1 °C 30.15 in /  1020.9 hPa Calm     86 % 0.00 in /  0 mm
02:53 34.0 °F /  1.1 °C 30.3 °F /  -0.9 °C 30.14 in /  1020.5 hPa Calm     86 % 0.00 in /  0 mm
02:58 34.0 °F /  1.1 °C 30.3 °F /  -0.9 °C 30.14 in /  1020.5 hPa Calm     86 % 0.00 in /  0 mm
03:03 34.0 °F /  1.1 °C 30.3 °F /  -0.9 °C 30.14 in /  1020.5 hPa Calm     86 % 0.00 in /  0 mm
03:08 33.8 °F /  1 °C 30.1 °F /  -1.1 °C 30.14 in /  1020.5 hPa Calm     86 % 0.00 in /  0 mm
03:14 33.7 °F /  0.9 °C 30.2 °F /  -1 °C 30.14 in /  1020.5 hPa Calm     87 % 0.00 in /  0 mm
03:19 33.6 °F /  0.9 °C 29.9 °F /  -1.2 °C 30.14 in /  1020.5 hPa Calm     86 % 0.00 in /  0 mm
03:24 33.4 °F /  0.8 °C 29.9 °F /  -1.2 °C 30.14 in /  1020.5 hPa Calm     87 % 0.00 in /  0 mm
03:29 33.3 °F /  0.7 °C 29.8 °F /  -1.2 °C 30.14 in /  1020.5 hPa Calm     87 % 0.00 in /  0 mm
03:34 33.3 °F /  0.7 °C 30.1 °F /  -1.1 °C 30.13 in /  1020.2 hPa Calm     88 % 0.00 in /  0 mm
03:39 33.6 °F /  0.9 °C 30.1 °F /  -1.1 °C 30.13 in /  1020.2 hPa Calm     87 % 0.00 in /  0 mm
03:44 33.5 °F /  0.8 °C 30.0 °F /  -1.1 °C 30.13 in /  1020.2 hPa Calm     87 % 0.00 in /  0 mm
03:49 33.5 °F /  0.8 °C 30.0 °F /  -1.1 °C 30.13 in /  1020.2 hPa Calm     87 % 0.00 in /  0 mm
03:54 33.4 °F /  0.8 °C 29.9 °F /  -1.2 °C 30.12 in /  1019.9 hPa Calm     87 % 0.00 in /  0 mm
03:59 33.5 °F /  0.8 °C 30.3 °F /  -0.9 °C 30.12 in /  1019.9 hPa Calm     88 % 0.00 in /  0 mm
04:04 33.7 °F /  0.9 °C 30.2 °F /  -1 °C 30.12 in /  1019.9 hPa Calm     87 % 0.00 in /  0 mm
04:09 33.8 °F /  1 °C 30.3 °F /  -0.9 °C 30.12 in /  1019.9 hPa Calm     87 % 0.00 in /  0 mm
04:14 33.8 °F /  1 °C 30.3 °F /  -0.9 °C 30.12 in /  1019.9 hPa Calm     87 % 0.00 in /  0 mm
04:19 34.0 °F /  1.1 °C 30.5 °F /  -0.8 °C 30.12 in /  1019.9 hPa Calm     87 % 0.00 in /  0 mm
04:24 34.3 °F /  1.3 °C 30.8 °F /  -0.7 °C 30.12 in /  1019.9 hPa Calm     87 % 0.00 in /  0 mm
04:29 34.4 °F /  1.3 °C 30.6 °F /  -0.8 °C 30.12 in /  1019.9 hPa Calm     86 % 0.00 in /  0 mm
04:34 34.3 °F /  1.3 °C 30.5 °F /  -0.8 °C 30.12 in /  1019.9 hPa Calm     86 % 0.00 in /  0 mm
04:39 34.2 °F /  1.2 °C 30.4 °F /  -0.9 °C 30.11 in /  1019.5 hPa Calm     86 % 0.00 in /  0 mm
04:44 34.1 °F /  1.2 °C 30.4 °F /  -0.9 °C 30.11 in /  1019.5 hPa Calm     86 % 0.00 in /  0 mm
04:49 34.0 °F /  1.1 °C 30.3 °F /  -0.9 °C 30.11 in /  1019.5 hPa Calm     86 % 0.00 in /  0 mm
04:54 34.1 °F /  1.2 °C 30.6 °F /  -0.8 °C 30.11 in /  1019.5 hPa Calm     87 % 0.00 in /  0 mm
04:59 34.2 °F /  1.2 °C 30.4 °F /  -0.9 °C 30.11 in /  1019.5 hPa Calm     86 % 0.00 in /  0 mm
05:04 34.1 °F /  1.2 °C 30.4 °F /  -0.9 °C 30.11 in /  1019.5 hPa Calm     86 % 0.00 in /  0 mm
05:09 34.1 °F /  1.2 °C 30.6 °F /  -0.8 °C 30.10 in /  1019.2 hPa Calm     87 % 0.00 in /  0 mm
05:14 34.1 °F /  1.2 °C 30.6 °F /  -0.8 °C 30.10 in /  1019.2 hPa Calm     87 % 0.00 in /  0 mm
05:19 34.1 °F /  1.2 °C 30.6 °F /  -0.8 °C 30.10 in /  1019.2 hPa Calm     87 % 0.00 in /  0 mm
05:24 34.2 °F /  1.2 °C 30.7 °F /  -0.7 °C 30.10 in /  1019.2 hPa Calm     87 % 0.00 in /  0 mm
05:29 34.4 °F /  1.3 °C 30.9 °F /  -0.6 °C 30.10 in /  1019.2 hPa Calm     87 % 0.00 in /  0 mm
05:34 34.1 °F /  1.2 °C 30.4 °F /  -0.9 °C 30.10 in /  1019.2 hPa Calm     86 % 0.00 in /  0 mm
05:39 33.8 °F /  1 °C 30.1 °F /  -1.1 °C 30.10 in /  1019.2 hPa Calm     86 % 0.00 in /  0 mm
05:44 33.6 °F /  0.9 °C 29.9 °F /  -1.2 °C 30.10 in /  1019.2 hPa Calm     86 % 0.00 in /  0 mm
05:49 33.3 °F /  0.7 °C 29.6 °F /  -1.3 °C 30.10 in /  1019.2 hPa Calm     86 % 0.00 in /  0 mm
05:54 33.1 °F /  0.6 °C 29.4 °F /  -1.4 °C 30.09 in /  1018.8 hPa Calm     86 % 0.00 in /  0 mm
05:59 33.1 °F /  0.6 °C 29.7 °F /  -1.3 °C 30.10 in /  1019.2 hPa Calm     87 % 0.00 in /  0 mm
06:04 33.0 °F /  0.6 °C 29.6 °F /  -1.3 °C 30.10 in /  1019.2 hPa Calm     87 % 0.00 in /  0 mm
06:09 33.1 °F /  0.6 °C 29.9 °F /  -1.2 °C 30.09 in /  1018.8 hPa Calm     88 % 0.00 in /  0 mm
06:14 33.2 °F /  0.7 °C 30.0 °F /  -1.1 °C 30.10 in /  1019.2 hPa Calm     88 % 0.00 in /  0 mm
06:19 33.1 °F /  0.6 °C 29.7 °F /  -1.3 °C 30.10 in /  1019.2 hPa Calm     87 % 0.00 in /  0 mm
06:24 33.2 °F /  0.7 °C 30.0 °F /  -1.1 °C 30.10 in /  1019.2 hPa Calm     88 % 0.00 in /  0 mm
06:29 33.2 °F /  0.7 °C 30.0 °F /  -1.1 °C 30.10 in /  1019.2 hPa Calm     88 % 0.00 in /  0 mm
06:30 33.2 °F /  0.7 °C 30.0 °F /  -1.1 °C 30.10 in /  1019.2 hPa Calm     88 % 0.00 in /  0 mm
06:35 33.5 °F /  0.8 °C 30.3 °F /  -0.9 °C 30.10 in /  1019.2 hPa Calm     88 % 0.00 in /  0 mm
06:40 33.6 °F /  0.9 °C 30.4 °F /  -0.9 °C 30.10 in /  1019.2 hPa Calm     88 % 0.00 in /  0 mm
06:45 33.9 °F /  1.1 °C 30.7 °F /  -0.7 °C 30.10 in /  1019.2 hPa Calm     88 % 0.00 in /  0 mm
06:50 34.0 °F /  1.1 °C 30.5 °F /  -0.8 °C 30.10 in /  1019.2 hPa Calm     87 % 0.00 in /  0 mm
06:55 34.1 °F /  1.2 °C 30.9 °F /  -0.6 °C 30.10 in /  1019.2 hPa Calm     88 % 0.00 in /  0 mm
07:00 34.6 °F /  1.4 °C 31.4 °F /  -0.3 °C 30.10 in /  1019.2 hPa Calm     88 % 0.00 in /  0 mm
07:05 35.2 °F /  1.8 °C 31.7 °F /  -0.2 °C 30.10 in /  1019.2 hPa Calm     87 % 0.00 in /  0 mm
07:10 35.6 °F /  2 °C 32.1 °F /  0.1 °C 30.10 in /  1019.2 hPa Calm     87 % 0.00 in /  0 mm
07:15 36.0 °F /  2.2 °C 32.5 °F /  0.3 °C 30.10 in /  1019.2 hPa SSE 1.2 mph /  1.9 km/h 1.2 mph /  1.9 km/h 87 % 0.00 in /  0 mm
07:20 36.1 °F /  2.3 °C 32.3 °F /  0.2 °C 30.10 in /  1019.2 hPa Calm     86 % 0.00 in /  0 mm
07:25 36.4 °F /  2.4 °C 32.9 °F /  0.5 °C 30.11 in /  1019.5 hPa Calm     87 % 0.00 in /  0 mm
07:30 36.6 °F /  2.6 °C 32.8 °F /  0.4 °C 30.10 in /  1019.2 hPa Calm     86 % 0.00 in /  0 mm
07:35 36.9 °F /  2.7 °C 33.1 °F /  0.6 °C 30.11 in /  1019.5 hPa Calm     86 % 0.00 in /  0 mm
07:40 37.2 °F /  2.9 °C 33.4 °F /  0.8 °C 30.11 in /  1019.5 hPa Calm     86 % 0.00 in /  0 mm
07:45 38.0 °F /  3.3 °C 34.2 °F /  1.2 °C 30.10 in /  1019.2 hPa Calm     86 % 0.00 in /  0 mm
07:50 38.8 °F /  3.8 °C 33.8 °F /  1 °C 30.10 in /  1019.2 hPa Calm     82 % 0.00 in /  0 mm
07:55 39.3 °F /  4.1 °C 34.3 °F /  1.3 °C 30.10 in /  1019.2 hPa Calm     82 % 0.00 in /  0 mm
08:00 40.1 °F /  4.5 °C 35.0 °F /  1.7 °C 30.10 in /  1019.2 hPa Calm     82 % 0.00 in /  0 mm
08:05 41.1 °F /  5.1 °C 35.7 °F /  2.1 °C 30.10 in /  1019.2 hPa Calm     81 % 0.00 in /  0 mm
08:10 42.0 °F /  5.6 °C 36.0 °F /  2.2 °C 30.10 in /  1019.2 hPa ESE 1.2 mph /  1.9 km/h   79 % 0.00 in /  0 mm
08:15 43.0 °F /  6.1 °C 36.3 °F /  2.4 °C 30.10 in /  1019.2 hPa Calm     77 % 0.00 in /  0 mm
08:20 44.2 °F /  6.8 °C 37.1 °F /  2.8 °C 30.10 in /  1019.2 hPa Calm     76 % 0.00 in /  0 mm
08:25 45.3 °F /  7.4 °C 36.8 °F /  2.7 °C 30.09 in /  1018.8 hPa SSE 2.3 mph /  3.7 km/h   72 % 0.00 in /  0 mm
08:30 46.2 °F /  7.9 °C 37.0 °F /  2.8 °C 30.09 in /  1018.8 hPa Calm     70 % 0.00 in /  0 mm
08:35 46.8 °F /  8.2 °C 36.4 °F /  2.4 °C 30.09 in /  1018.8 hPa SE 1.2 mph /  1.9 km/h 1.2 mph /  1.9 km/h 67 % 0.00 in /  0 mm
08:40 46.9 °F /  8.3 °C 36.5 °F /  2.5 °C 30.09 in /  1018.8 hPa SE 1.2 mph /  1.9 km/h   67 % 0.00 in /  0 mm
08:45 47.1 °F /  8.4 °C 36.3 °F /  2.4 °C 30.09 in /  1018.8 hPa South 1.2 mph /  1.9 km/h 1.2 mph /  1.9 km/h 66 % 0.00 in /  0 mm
08:50 47.6 °F /  8.7 °C 36.0 °F /  2.2 °C 30.09 in /  1018.8 hPa SE 2.3 mph /  3.7 km/h 2.3 mph /  3.7 km/h 64 % 0.00 in /  0 mm
08:55 48.1 °F /  8.9 °C 35.7 °F /  2.1 °C 30.08 in /  1018.5 hPa SSE 2.3 mph /  3.7 km/h 2.3 mph /  3.7 km/h 62 % 0.00 in /  0 mm
09:00 48.7 °F /  9.3 °C 35.4 °F /  1.9 °C 30.08 in /  1018.5 hPa South 2.3 mph /  3.7 km/h 2.3 mph /  3.7 km/h 60 % 0.00 in /  0 mm
09:05 49.3 °F /  9.6 °C 36.0 °F /  2.2 °C 30.08 in /  1018.5 hPa SSE 1.2 mph /  1.9 km/h   60 % 0.00 in /  0 mm
09:10 50.0 °F /  10 °C 36.7 °F /  2.6 °C 30.08 in /  1018.5 hPa SSE 1.2 mph /  1.9 km/h   60 % 0.00 in /  0 mm
09:15 50.4 °F /  10.2 °C 36.2 °F /  2.3 °C 30.08 in /  1018.5 hPa SSE 2.3 mph /  3.7 km/h 2.3 mph /  3.7 km/h 58 % 0.00 in /  0 mm
09:20 50.9 °F /  10.5 °C 36.2 °F /  2.3 °C 30.07 in /  1018.2 hPa SE 1.2 mph /  1.9 km/h 1.2 mph /  1.9 km/h 57 % 0.00 in /  0 mm
09:25 51.2 °F /  10.7 °C 36.0 °F /  2.2 °C 30.07 in /  1018.2 hPa SE 2.3 mph /  3.7 km/h 2.3 mph /  3.7 km/h 56 % 0.00 in /  0 mm
09:30 51.5 °F /  10.8 °C 36.3 °F /  2.4 °C 30.07 in /  1018.2 hPa SSE 2.3 mph /  3.7 km/h   56 % 0.00 in /  0 mm
09:35 51.6 °F /  10.9 °C 36.4 °F /  2.4 °C 30.07 in /  1018.2 hPa Calm   0.6 mph /  1 km/h 56 % 0.00 in /  0 mm
09:40 51.9 °F /  11.1 °C 36.7 °F /  2.6 °C 30.07 in /  1018.2 hPa Calm   0.6 mph /  1 km/h 56 % 0.00 in /  0 mm
09:45 52.3 °F /  11.3 °C 37.5 °F /  3.1 °C 30.06 in /  1017.8 hPa SSE 2.3 mph /  3.7 km/h   57 % 0.00 in /  0 mm
09:50 53.0 °F /  11.7 °C 37.3 °F /  2.9 °C 30.06 in /  1017.8 hPa NNW 2.3 mph /  3.7 km/h 2.3 mph /  3.7 km/h 55 % 0.00 in /  0 mm
09:55 53.3 °F /  11.8 °C 37.5 °F /  3.1 °C 30.06 in /  1017.8 hPa East 2.3 mph /  3.7 km/h 2.3 mph /  3.7 km/h 55 % 0.00 in /  0 mm
10:00 53.7 °F /  12.1 °C 37.9 °F /  3.3 °C 30.06 in /  1017.8 hPa Calm     55 % 0.00 in /  0 mm
10:05 54.3 °F /  12.4 °C 37.5 °F /  3.1 °C 30.06 in /  1017.8 hPa ESE 1.2 mph /  1.9 km/h 1.2 mph /  1.9 km/h 53 % 0.00 in /  0 mm
10:11 54.6 °F /  12.6 °C 36.8 °F /  2.7 °C 30.06 in /  1017.8 hPa WNW 2.0 mph /  3.2 km/h 2.0 mph /  3.2 km/h 51 % 0.00 in /  0 mm
10:16 54.5 °F /  12.5 °C 37.7 °F /  3.2 °C 30.05 in /  1017.5 hPa SSW 2.3 mph /  3.7 km/h 2.3 mph /  3.7 km/h 53 % 0.00 in /  0 mm
10:21 54.8 °F /  12.7 °C 38.0 °F /  3.3 °C 30.05 in /  1017.5 hPa Calm     53 % 0.00 in /  0 mm
10:26 55.7 °F /  13.2 °C 37.8 °F /  3.2 °C 30.05 in /  1017.5 hPa SW 1.2 mph /  1.9 km/h   51 % 0.00 in /  0 mm
10:31 55.7 °F /  13.2 °C 37.3 °F /  2.9 °C 30.05 in /  1017.5 hPa SSE 1.2 mph /  1.9 km/h 1.2 mph /  1.9 km/h 50 % 0.00 in /  0 mm
10:36 56.1 °F /  13.4 °C 37.7 °F /  3.2 °C 30.05 in /  1017.5 hPa Calm     50 % 0.00 in /  0 mm
10:41 56.6 °F /  13.7 °C 37.1 °F /  2.8 °C 30.04 in /  1017.2 hPa West 2.3 mph /  3.7 km/h 2.3 mph /  3.7 km/h 48 % 0.00 in /  0 mm
10:46 57.2 °F /  14 °C 36.6 °F /  2.6 °C 30.04 in /  1017.2 hPa WNW 2.3 mph /  3.7 km/h 2.3 mph /  3.7 km/h 46 % 0.00 in /  0 mm
10:51 56.8 °F /  13.8 °C 37.3 °F /  2.9 °C 30.04 in /  1017.2 hPa SSW 2.3 mph /  3.7 km/h 2.3 mph /  3.7 km/h 48 % 0.00 in /  0 mm
10:56 57.7 °F /  14.3 °C 37.6 °F /  3.1 °C 30.03 in /  1016.8 hPa SSE 1.2 mph /  1.9 km/h 1.2 mph /  1.9 km/h 47 % 0.00 in /  0 mm
11:01 57.8 °F /  14.3 °C 37.7 °F /  3.2 °C 30.03 in /  1016.8 hPa SE 3.5 mph /  5.6 km/h 3.5 mph /  5.6 km/h 47 % 0.00 in /  0 mm
11:06 57.8 °F /  14.3 °C 37.1 °F /  2.8 °C 30.03 in /  1016.8 hPa SE 2.3 mph /  3.7 km/h 2.3 mph /  3.7 km/h 46 % 0.00 in /  0 mm
11:11 58.0 °F /  14.4 °C 37.9 °F /  3.3 °C 30.03 in /  1016.8 hPa SSE 2.3 mph /  3.7 km/h 2.3 mph /  3.7 km/h 47 % 0.00 in /  0 mm
11:16 57.8 °F /  14.3 °C 36.0 °F /  2.2 °C 30.03 in /  1016.8 hPa NNE 2.3 mph /  3.7 km/h 2.3 mph /  3.7 km/h 44 % 0.00 in /  0 mm
11:21 57.7 °F /  14.3 °C 36.5 °F /  2.5 °C 30.03 in /  1016.8 hPa SE 2.3 mph /  3.7 km/h 2.3 mph /  3.7 km/h 45 % 0.00 in /  0 mm
11:26 58.1 °F /  14.5 °C 37.4 °F /  3 °C 30.02 in /  1016.5 hPa NNW 2.0 mph /  3.2 km/h 2.0 mph /  3.2 km/h 46 % 0.00 in /  0 mm
11:31 58.1 °F /  14.5 °C 36.9 °F /  2.7 °C 30.02 in /  1016.5 hPa SSE 1.2 mph /  1.9 km/h 1.2 mph /  1.9 km/h 45 % 0.00 in /  0 mm
11:36 57.8 °F /  14.3 °C 36.6 °F /  2.6 °C 30.01 in /  1016.1 hPa Calm     45 % 0.00 in /  0 mm
11:41 57.9 °F /  14.4 °C 36.7 °F /  2.6 °C 30.01 in /  1016.1 hPa ESE 1.2 mph /  1.9 km/h 1.2 mph /  1.9 km/h 45 % 0.00 in /  0 mm
11:46 58.0 °F /  14.4 °C 36.2 °F /  2.3 °C 30.01 in /  1016.1 hPa NNW 1.2 mph /  1.9 km/h 1.2 mph /  1.9 km/h 44 % 0.00 in /  0 mm
11:51 57.7 °F /  14.3 °C 36.5 °F /  2.5 °C 30.01 in /  1016.1 hPa SE 2.3 mph /  3.7 km/h 2.3 mph /  3.7 km/h 45 % 0.00 in /  0 mm
11:56 57.6 °F /  14.2 °C 35.2 °F /  1.8 °C 30.00 in /  1015.8 hPa NW 2.3 mph /  3.7 km/h 2.3 mph /  3.7 km/h 43 % 0.00 in /  0 mm
12:01 57.1 °F /  13.9 °C 35.9 °F /  2.2 °C 30.00 in /  1015.8 hPa Calm     45 % 0.00 in /  0 mm
12:06 57.0 °F /  13.9 °C 35.3 °F /  1.8 °C 30.00 in /  1015.8 hPa NW 3.5 mph /  5.6 km/h 3.5 mph /  5.6 km/h 44 % 0.00 in /  0 mm
12:11 57.3 °F /  14.1 °C 35.0 °F /  1.7 °C 29.99 in /  1015.5 hPa NNW 1.2 mph /  1.9 km/h 1.2 mph /  1.9 km/h 43 % 0.00 in /  0 mm
12:16 57.6 °F /  14.2 °C 35.8 °F /  2.1 °C 29.99 in /  1015.5 hPa South 1.2 mph /  1.9 km/h   44 % 0.00 in /  0 mm
12:21 57.9 °F /  14.4 °C 35.5 °F /  1.9 °C 29.98 in /  1015.1 hPa Calm     43 % 0.00 in /  0 mm
12:26 58.1 °F /  14.5 °C 35.1 °F /  1.7 °C 29.98 in /  1015.1 hPa NNW 1.2 mph /  1.9 km/h 1.2 mph /  1.9 km/h 42 % 0.00 in /  0 mm
12:31 57.7 °F /  14.3 °C 34.7 °F /  1.5 °C 29.98 in /  1015.1 hPa NW 2.3 mph /  3.7 km/h 2.3 mph /  3.7 km/h 42 % 0.00 in /  0 mm
12:36 57.4 °F /  14.1 °C 35.1 °F /  1.7 °C 29.97 in /  1014.8 hPa NW 1.2 mph /  1.9 km/h   43 % 0.00 in /  0 mm
12:41 57.4 °F /  14.1 °C 34.5 °F /  1.4 °C 29.97 in /  1014.8 hPa NW 2.3 mph /  3.7 km/h 2.3 mph /  3.7 km/h 42 % 0.00 in /  0 mm
12:46 57.4 °F /  14.1 °C 34.5 °F /  1.4 °C 29.97 in /  1014.8 hPa NW 2.3 mph /  3.7 km/h 2.3 mph /  3.7 km/h 42 % 0.00 in /  0 mm
12:51 57.3 °F /  14.1 °C 34.4 °F /  1.3 °C 29.97 in /  1014.8 hPa WNW 1.2 mph /  1.9 km/h 1.2 mph /  1.9 km/h 42 % 0.00 in /  0 mm
13:01 57.1 °F /  13.9 °C 33.6 °F /  0.9 °C 29.96 in /  1014.4 hPa Calm     41 % 0.00 in /  0 mm
13:06 57.0 °F /  13.9 °C 33.5 °F /  0.8 °C 29.96 in /  1014.4 hPa Calm     41 % 0.00 in /  0 mm
13:11 57.1 °F /  13.9 °C 34.2 °F /  1.2 °C 29.95 in /  1014.1 hPa Calm     42 % 0.00 in /  0 mm
13:16 57.2 °F /  14 °C 34.3 °F /  1.3 °C 29.95 in /  1014.1 hPa Calm     42 % 0.00 in /  0 mm
13:21 57.3 °F /  14.1 °C 35.0 °F /  1.7 °C 29.95 in /  1014.1 hPa Calm     43 % 0.00 in /  0 mm
13:26 57.1 °F /  13.9 °C 33.6 °F /  0.9 °C 29.95 in /  1014.1 hPa Calm     41 % 0.00 in /  0 mm
13:32 56.9 °F /  13.8 °C 34.0 °F /  1.1 °C 29.95 in /  1014.1 hPa NW 1.2 mph /  1.9 km/h   42 % 0.00 in /  0 mm
13:37 56.7 °F /  13.7 °C 33.2 °F /  0.7 °C 29.94 in /  1013.8 hPa Calm     41 % 0.00 in /  0 mm
13:42 56.8 °F /  13.8 °C 33.3 °F /  0.7 °C 29.94 in /  1013.8 hPa Calm     41 % 0.00 in /  0 mm
13:46 56.8 °F /  13.8 °C 33.3 °F /  0.7 °C 29.94 in /  1013.8 hPa WNW 1.2 mph /  1.9 km/h 1.2 mph /  1.9 km/h 41 % 0.00 in /  0 mm
13:51 56.8 °F /  13.8 °C 33.3 °F /  0.7 °C 29.94 in /  1013.8 hPa WNW 1.2 mph /  1.9 km/h 1.2 mph /  1.9 km/h 41 % 0.00 in /  0 mm
13:57 56.7 °F /  13.7 °C 33.2 °F /  0.7 °C 29.94 in /  1013.8 hPa Calm     41 % 0.00 in /  0 mm
14:02 56.6 °F /  13.7 °C 33.2 °F /  0.7 °C 29.93 in /  1013.4 hPa West 1.2 mph /  1.9 km/h 1.2 mph /  1.9 km/h 41 % 0.00 in /  0 mm
14:07 56.5 °F /  13.6 °C 33.1 °F /  0.6 °C 29.93 in /  1013.4 hPa Calm     41 % 0.00 in /  0 mm
14:12 56.5 °F /  13.6 °C 33.7 °F /  0.9 °C 29.93 in /  1013.4 hPa NW 1.2 mph /  1.9 km/h 1.2 mph /  1.9 km/h 42 % 0.00 in /  0 mm
14:17 56.5 °F /  13.6 °C 33.7 °F /  0.9 °C 29.93 in /  1013.4 hPa Calm     42 % 0.00 in /  0 mm
14:22 56.5 °F /  13.6 °C 34.3 °F /  1.3 °C 29.93 in /  1013.4 hPa WNW 1.2 mph /  1.9 km/h 1.2 mph /  1.9 km/h 43 % 0.00 in /  0 mm
14:27 56.4 °F /  13.6 °C 33.6 °F /  0.9 °C 29.93 in /  1013.4 hPa NNW 2.3 mph /  3.7 km/h 2.3 mph /  3.7 km/h 42 % 0.00 in /  0 mm
14:32 56.3 °F /  13.5 °C 34.1 °F /  1.2 °C 29.92 in /  1013.1 hPa NW 1.2 mph /  1.9 km/h 1.2 mph /  1.9 km/h 43 % 0.00 in /  0 mm
14:37 56.2 °F /  13.4 °C 34.0 °F /  1.1 °C 29.92 in /  1013.1 hPa Calm     43 % 0.00 in /  0 mm
14:42 56.2 °F /  13.4 °C 33.4 °F /  0.8 °C 29.92 in /  1013.1 hPa Calm     42 % 0.00 in /  0 mm
14:47 56.2 °F /  13.4 °C 33.4 °F /  0.8 °C 29.92 in /  1013.1 hPa Calm     42 % 0.00 in /  0 mm
14:52 56.3 °F /  13.5 °C 34.1 °F /  1.2 °C 29.92 in /  1013.1 hPa North 1.2 mph /  1.9 km/h 1.2 mph /  1.9 km/h 43 % 0.00 in /  0 mm
14:57 56.3 °F /  13.5 °C 33.5 °F /  0.8 °C 29.92 in /  1013.1 hPa NW 1.2 mph /  1.9 km/h 1.2 mph /  1.9 km/h 42 % 0.00 in /  0 mm
15:02 56.3 °F /  13.5 °C 32.9 °F /  0.5 °C 29.92 in /  1013.1 hPa Calm     41 % 0.00 in /  0 mm
15:07 56.3 °F /  13.5 °C 32.9 °F /  0.5 °C 29.91 in /  1012.8 hPa West 1.2 mph /  1.9 km/h 1.2 mph /  1.9 km/h 41 % 0.00 in /  0 mm
15:12 56.3 °F /  13.5 °C 33.5 °F /  0.8 °C 29.91 in /  1012.8 hPa Calm     42 % 0.00 in /  0 mm
15:17 56.3 °F /  13.5 °C 33.5 °F /  0.8 °C 29.91 in /  1012.8 hPa NW 1.2 mph /  1.9 km/h 1.2 mph /  1.9 km/h 42 % 0.00 in /  0 mm
15:22 56.3 °F /  13.5 °C 32.9 °F /  0.5 °C 29.91 in /  1012.8 hPa NNW 1.2 mph /  1.9 km/h   41 % 0.00 in /  0 mm
15:27 56.4 °F /  13.6 °C 33.6 °F /  0.9 °C 29.91 in /  1012.8 hPa NW 1.2 mph /  1.9 km/h 1.2 mph /  1.9 km/h 42 % 0.00 in /  0 mm
15:32 56.3 °F /  13.5 °C 32.9 °F /  0.5 °C 29.91 in /  1012.8 hPa Calm     41 % 0.00 in /  0 mm
15:37 56.3 °F /  13.5 °C 33.5 °F /  0.8 °C 29.91 in /  1012.8 hPa Calm     42 % 0.00 in /  0 mm
15:42 56.2 °F /  13.4 °C 33.4 °F /  0.8 °C 29.90 in /  1012.4 hPa Calm     42 % 0.00 in /  0 mm
15:47 56.1 °F /  13.4 °C 33.9 °F /  1.1 °C 29.90 in /  1012.4 hPa NW 1.2 mph /  1.9 km/h 1.2 mph /  1.9 km/h 43 % 0.00 in /  0 mm
15:52 56.0 °F /  13.3 °C 34.4 °F /  1.3 °C 29.90 in /  1012.4 hPa NW 1.2 mph /  1.9 km/h 1.2 mph /  1.9 km/h 44 % 0.00 in /  0 mm
15:57 55.9 °F /  13.3 °C 33.7 °F /  0.9 °C 29.90 in /  1012.4 hPa WNW 2.3 mph /  3.7 km/h 2.3 mph /  3.7 km/h 43 % 0.00 in /  0 mm
16:02 55.8 °F /  13.2 °C 34.2 °F /  1.2 °C 29.90 in /  1012.4 hPa NW 1.2 mph /  1.9 km/h 1.2 mph /  1.9 km/h 44 % 0.00 in /  0 mm
16:12 55.8 °F /  13.2 °C 34.8 °F /  1.6 °C 29.89 in /  1012.1 hPa NW 1.0 mph /  1.6 km/h 1.0 mph /  1.6 km/h 45 % 0.00 in /  0 mm
16:17 55.6 °F /  13.1 °C 34.6 °F /  1.4 °C 29.89 in /  1012.1 hPa NW 2.3 mph /  3.7 km/h 2.3 mph /  3.7 km/h 45 % 0.00 in /  0 mm
16:22 55.6 °F /  13.1 °C 34.6 °F /  1.4 °C 29.89 in /  1012.1 hPa NW 2.3 mph /  3.7 km/h 2.3 mph /  3.7 km/h 45 % 0.00 in /  0 mm
16:27 55.4 °F /  13 °C 33.3 °F /  0.7 °C 29.89 in /  1012.1 hPa WNW 3.0 mph /  4.8 km/h 3.0 mph /  4.8 km/h 43 % 0.00 in /  0 mm
16:32 55.4 °F /  13 °C 34.4 °F /  1.3 °C 29.89 in /  1012.1 hPa West 2.3 mph /  3.7 km/h 2.3 mph /  3.7 km/h 45 % 0.00 in /  0 mm
16:37 55.2 °F /  12.9 °C 32.5 °F /  0.3 °C 29.89 in /  1012.1 hPa West 3.5 mph /  5.6 km/h 3.5 mph /  5.6 km/h 42 % 0.00 in /  0 mm
16:42 55.1 °F /  12.8 °C 32.4 °F /  0.2 °C 29.89 in /  1012.1 hPa WNW 2.3 mph /  3.7 km/h 2.3 mph /  3.7 km/h 42 % 0.00 in /  0 mm
16:47 55.1 °F /  12.8 °C 32.4 °F /  0.2 °C 29.89 in /  1012.1 hPa Calm     42 % 0.00 in /  0 mm
16:52 54.9 °F /  12.7 °C 32.8 °F /  0.4 °C 29.88 in /  1011.7 hPa NW 1.2 mph /  1.9 km/h 1.2 mph /  1.9 km/h 43 % 0.00 in /  0 mm
16:57 54.8 °F /  12.7 °C 33.3 °F /  0.7 °C 29.88 in /  1011.7 hPa SSE 1.2 mph /  1.9 km/h   44 % 0.00 in /  0 mm
17:02 54.7 °F /  12.6 °C 33.8 °F /  1 °C 29.88 in /  1011.7 hPa SSE 1.2 mph /  1.9 km/h   45 % 0.00 in /  0 mm
17:07 54.5 °F /  12.5 °C 33.6 °F /  0.9 °C 29.89 in /  1012.1 hPa NW 5.0 mph /  8 km/h 5.0 mph /  8 km/h 45 % 0.00 in /  0 mm
17:12 52.7 °F /  11.5 °C 40.9 °F /  4.9 °C 29.89 in /  1012.1 hPa NNW 6.9 mph /  11.1 km/h 6.9 mph /  11.1 km/h 64 % 0.00 in /  0 mm
17:17 51.4 °F /  10.8 °C 40.8 °F /  4.9 °C 29.89 in /  1012.1 hPa WNW 8.1 mph /  13 km/h 8.1 mph /  13 km/h 67 % 0.00 in /  0 mm
17:22 50.4 °F /  10.2 °C 41.0 °F /  5 °C 29.89 in /  1012.1 hPa NW 8.1 mph /  13 km/h 8.1 mph /  13 km/h 70 % 0.00 in /  0 mm
17:27 49.6 °F /  9.8 °C 41.3 °F /  5.2 °C 29.89 in /  1012.1 hPa NNW 4.6 mph /  7.4 km/h 4.6 mph /  7.4 km/h 73 % 0.00 in /  0 mm
17:32 49.1 °F /  9.5 °C 40.8 °F /  4.9 °C 29.89 in /  1012.1 hPa NW 4.0 mph /  6.4 km/h 4.0 mph /  6.4 km/h 73 % 0.00 in /  0 mm
17:37 48.7 °F /  9.3 °C 40.8 °F /  4.9 °C 29.89 in /  1012.1 hPa WNW 4.6 mph /  7.4 km/h 4.6 mph /  7.4 km/h 74 % 0.00 in /  0 mm
17:42 48.4 °F /  9.1 °C 40.8 °F /  4.9 °C 29.89 in /  1012.1 hPa NW 3.5 mph /  5.6 km/h 3.5 mph /  5.6 km/h 75 % 0.00 in /  0 mm
17:47 48.0 °F /  8.9 °C 40.5 °F /  4.7 °C 29.89 in /  1012.1 hPa NW 5.8 mph /  9.3 km/h 5.8 mph /  9.3 km/h 75 % 0.00 in /  0 mm
17:52 47.7 °F /  8.7 °C 40.2 °F /  4.6 °C 29.89 in /  1012.1 hPa NW 8.1 mph /  13 km/h 8.1 mph /  13 km/h 75 % 0.00 in /  0 mm
17:57 47.5 °F /  8.6 °C 40.3 °F /  4.6 °C 29.89 in /  1012.1 hPa NW 6.9 mph /  11.1 km/h 6.9 mph /  11.1 km/h 76 % 0.00 in /  0 mm
18:02 47.5 °F /  8.6 °C 40.3 °F /  4.6 °C 29.89 in /  1012.1 hPa NW 6.9 mph /  11.1 km/h 6.9 mph /  11.1 km/h 76 % 0.00 in /  0 mm
18:12 47.3 °F /  8.5 °C 40.5 °F /  4.7 °C 29.89 in /  1012.1 hPa NW 5.8 mph /  9.3 km/h 5.8 mph /  9.3 km/h 77 % 0.00 in /  0 mm
18:17 47.2 °F /  8.4 °C 40.4 °F /  4.7 °C 29.89 in /  1012.1 hPa NW 3.5 mph /  5.6 km/h 3.5 mph /  5.6 km/h 77 % 0.00 in /  0 mm
18:23 47.2 °F /  8.4 °C 40.7 °F /  4.8 °C 29.89 in /  1012.1 hPa WSW 9.0 mph /  14.5 km/h 9.0 mph /  14.5 km/h 78 % 0.00 in /  0 mm
18:28 47.1 °F /  8.4 °C 40.6 °F /  4.8 °C 29.89 in /  1012.1 hPa NW 6.9 mph /  11.1 km/h 6.9 mph /  11.1 km/h 78 % 0.00 in /  0 mm
18:33 47.0 °F /  8.3 °C 40.8 °F /  4.9 °C 29.89 in /  1012.1 hPa WNW 3.5 mph /  5.6 km/h 3.5 mph /  5.6 km/h 79 % 0.00 in /  0 mm
18:38 46.9 °F /  8.3 °C 40.7 °F /  4.8 °C 29.89 in /  1012.1 hPa NW 2.3 mph /  3.7 km/h 2.3 mph /  3.7 km/h 79 % 0.00 in /  0 mm
18:43 46.8 °F /  8.2 °C 40.6 °F /  4.8 °C 29.89 in /  1012.1 hPa NW 3.5 mph /  5.6 km/h 3.5 mph /  5.6 km/h 79 % 0.00 in /  0 mm
18:48 46.8 °F /  8.2 °C 40.6 °F /  4.8 °C 29.89 in /  1012.1 hPa NW 3.5 mph /  5.6 km/h 3.5 mph /  5.6 km/h 79 % 0.00 in /  0 mm
18:53 46.7 °F /  8.2 °C 40.5 °F /  4.7 °C 29.89 in /  1012.1 hPa NW 1.2 mph /  1.9 km/h 1.2 mph /  1.9 km/h 79 % 0.00 in /  0 mm
18:58 46.7 °F /  8.2 °C 40.5 °F /  4.7 °C 29.89 in /  1012.1 hPa NNW 2.3 mph /  3.7 km/h 2.3 mph /  3.7 km/h 79 % 0.00 in /  0 mm
19:03 46.6 °F /  8.1 °C 40.8 °F /  4.9 °C 29.89 in /  1012.1 hPa Calm     80 % 0.00 in /  0 mm
19:08 46.6 °F /  8.1 °C 40.8 °F /  4.9 °C 29.89 in /  1012.1 hPa West 1.0 mph /  1.6 km/h   80 % 0.00 in /  0 mm
19:13 46.6 °F /  8.1 °C 40.8 °F /  4.9 °C 29.89 in /  1012.1 hPa Calm     80 % 0.00 in /  0 mm
19:18 46.5 °F /  8.1 °C 41.0 °F /  5 °C 29.89 in /  1012.1 hPa WNW 1.2 mph /  1.9 km/h 1.2 mph /  1.9 km/h 81 % 0.00 in /  0 mm
19:23 46.4 °F /  8 °C 41.2 °F /  5.1 °C 29.89 in /  1012.1 hPa NW 1.2 mph /  1.9 km/h 1.2 mph /  1.9 km/h 82 % 0.00 in /  0 mm
19:28 46.2 °F /  7.9 °C 41.3 °F /  5.2 °C 29.89 in /  1012.1 hPa WNW 1.2 mph /  1.9 km/h 1.2 mph /  1.9 km/h 83 % 0.00 in /  0 mm
19:33 46.1 °F /  7.8 °C 41.5 °F /  5.3 °C 29.89 in /  1012.1 hPa Calm     84 % 0.00 in /  0 mm
19:38 46.0 °F /  7.8 °C 41.4 °F /  5.2 °C 29.89 in /  1012.1 hPa Calm     84 % 0.00 in /  0 mm
19:43 45.9 °F /  7.7 °C 41.6 °F /  5.3 °C 29.89 in /  1012.1 hPa Calm     85 % 0.00 in /  0 mm
19:48 45.8 °F /  7.7 °C 41.9 °F /  5.5 °C 29.89 in /  1012.1 hPa WNW 1.0 mph /  1.6 km/h 1.0 mph /  1.6 km/h 86 % 0.00 in /  0 mm
19:53 45.7 °F /  7.6 °C 41.8 °F /  5.4 °C 29.89 in /  1012.1 hPa Calm     86 % 0.00 in /  0 mm
19:58 45.7 °F /  7.6 °C 42.1 °F /  5.6 °C 29.89 in /  1012.1 hPa Calm     87 % 0.00 in /  0 mm
20:03 45.6 °F /  7.6 °C 42.3 °F /  5.7 °C 29.90 in /  1012.4 hPa Calm     88 % 0.00 in /  0 mm
20:08 45.6 °F /  7.6 °C 42.3 °F /  5.7 °C 29.90 in /  1012.4 hPa Calm     88 % 0.00 in /  0 mm
20:13 45.5 °F /  7.5 °C 42.2 °F /  5.7 °C 29.90 in /  1012.4 hPa Calm     88 % 0.00 in /  0 mm
20:18 45.5 °F /  7.5 °C 42.4 °F /  5.8 °C 29.90 in /  1012.4 hPa Calm     89 % 0.00 in /  0 mm
20:23 45.5 °F /  7.5 °C 42.4 °F /  5.8 °C 29.90 in /  1012.4 hPa Calm     89 % 0.00 in /  0 mm
20:28 45.4 °F /  7.4 °C 42.3 °F /  5.7 °C 29.90 in /  1012.4 hPa Calm     89 % 0.00 in /  0 mm
20:33 45.4 °F /  7.4 °C 42.6 °F /  5.9 °C 29.90 in /  1012.4 hPa Calm     90 % 0.00 in /  0 mm
20:38 45.3 °F /  7.4 °C 42.5 °F /  5.8 °C 29.90 in /  1012.4 hPa Calm     90 % 0.00 in /  0 mm
20:43 45.2 °F /  7.3 °C 42.4 °F /  5.8 °C 29.90 in /  1012.4 hPa Calm     90 % 0.00 in /  0 mm
20:48 45.2 °F /  7.3 °C 42.4 °F /  5.8 °C 29.90 in /  1012.4 hPa Calm     90 % 0.00 in /  0 mm
20:53 45.2 °F /  7.3 °C 42.4 °F /  5.8 °C 29.90 in /  1012.4 hPa Calm     90 % 0.00 in /  0 mm
20:58 45.2 °F /  7.3 °C 42.4 °F /  5.8 °C 29.90 in /  1012.4 hPa Calm     90 % 0.00 in /  0 mm
21:03 45.2 °F /  7.3 °C 42.4 °F /  5.8 °C 29.90 in /  1012.4 hPa Calm     90 % 0.01 in /  0.25 mm
21:08 45.2 °F /  7.3 °C 42.7 °F /  5.9 °C 29.90 in /  1012.4 hPa Calm     91 % 0.01 in /  0.25 mm
21:13 45.1 °F /  7.3 °C 42.6 °F /  5.9 °C 29.90 in /  1012.4 hPa Calm     91 % 0.02 in /  0.51 mm
21:18 45.1 °F /  7.3 °C 42.6 °F /  5.9 °C 29.90 in /  1012.4 hPa Calm     91 % 0.02 in /  0.51 mm
21:23 45.0 °F /  7.2 °C 42.5 °F /  5.8 °C 29.90 in /  1012.4 hPa Calm     91 % 0.02 in /  0.51 mm
21:28 44.9 °F /  7.2 °C 42.7 °F /  5.9 °C 29.90 in /  1012.4 hPa Calm     92 % 0.03 in /  0.76 mm
21:33 44.9 °F /  7.2 °C 42.7 °F /  5.9 °C 29.90 in /  1012.4 hPa Calm     92 % 0.03 in /  0.76 mm
21:38 44.8 °F /  7.1 °C 42.6 °F /  5.9 °C 29.91 in /  1012.8 hPa Calm     92 % 0.03 in /  0.76 mm
21:43 44.8 °F /  7.1 °C 42.6 °F /  5.9 °C 29.91 in /  1012.8 hPa Calm     92 % 0.04 in /  1.02 mm
21:48 44.8 °F /  7.1 °C 42.6 °F /  5.9 °C 29.91 in /  1012.8 hPa Calm     92 % 0.04 in /  1.02 mm
21:53 44.8 °F /  7.1 °C 42.9 °F /  6.1 °C 29.91 in /  1012.8 hPa Calm     93 % 0.05 in /  1.27 mm
21:58 44.7 °F /  7.1 °C 42.8 °F /  6 °C 29.91 in /  1012.8 hPa Calm     93 % 0.05 in /  1.27 mm
22:03 44.8 °F /  7.1 °C 42.9 °F /  6.1 °C 29.91 in /  1012.8 hPa Calm     93 % 0.04 in /  1.02 mm
22:08 44.7 °F /  7.1 °C 42.8 °F /  6 °C 29.91 in /  1012.8 hPa SSW 1.2 mph /  1.9 km/h   93 % 0.05 in /  1.27 mm
22:13 44.6 °F /  7 °C 42.7 °F /  5.9 °C 29.91 in /  1012.8 hPa South 1.2 mph /  1.9 km/h 1.2 mph /  1.9 km/h 93 % 0.04 in /  1.02 mm
22:18 44.6 °F /  7 °C 42.7 °F /  5.9 °C 29.91 in /  1012.8 hPa Calm     93 % 0.05 in /  1.27 mm
22:24 44.6 °F /  7 °C 42.7 °F /  5.9 °C 29.91 in /  1012.8 hPa SSE 1.2 mph /  1.9 km/h   93 % 0.06 in /  1.52 mm
22:29 44.6 °F /  7 °C 42.7 °F /  5.9 °C 29.91 in /  1012.8 hPa SE 3.5 mph /  5.6 km/h 3.5 mph /  5.6 km/h 93 % 0.06 in /  1.52 mm
22:34 44.6 °F /  7 °C 43.0 °F /  6.1 °C 29.91 in /  1012.8 hPa SE 1.2 mph /  1.9 km/h   94 % 0.08 in /  2.03 mm
22:39 44.5 °F /  6.9 °C 42.9 °F /  6.1 °C 29.91 in /  1012.8 hPa SE 3.5 mph /  5.6 km/h 3.5 mph /  5.6 km/h 94 % 0.09 in /  2.29 mm
22:44 44.3 °F /  6.8 °C 42.7 °F /  5.9 °C 29.91 in /  1012.8 hPa South 2.3 mph /  3.7 km/h 2.3 mph /  3.7 km/h 94 % 0.09 in /  2.29 mm
22:49 44.3 °F /  6.8 °C 42.7 °F /  5.9 °C 29.91 in /  1012.8 hPa SE 3.5 mph /  5.6 km/h 3.5 mph /  5.6 km/h 94 % 0.11 in /  2.79 mm
22:54 44.1 °F /  6.7 °C 42.5 °F /  5.8 °C 29.91 in /  1012.8 hPa ESE 2.3 mph /  3.7 km/h 2.3 mph /  3.7 km/h 94 % 0.11 in /  2.79 mm
22:59 44.1 °F /  6.7 °C 42.5 °F /  5.8 °C 29.91 in /  1012.8 hPa ESE 2.3 mph /  3.7 km/h 2.3 mph /  3.7 km/h 94 % 0.12 in /  3.05 mm
23:04 44.1 °F /  6.7 °C 42.5 °F /  5.8 °C 29.91 in /  1012.8 hPa ESE 1.2 mph /  1.9 km/h   94 % 0.12 in /  3.05 mm
23:09 44.1 °F /  6.7 °C 42.5 °F /  5.8 °C 29.91 in /  1012.8 hPa ESE 1.2 mph /  1.9 km/h 1.2 mph /  1.9 km/h 94 % 0.13 in /  3.3 mm
23:14 44.1 °F /  6.7 °C 42.5 °F /  5.8 °C 29.91 in /  1012.8 hPa ESE 1.2 mph /  1.9 km/h 1.2 mph /  1.9 km/h 94 % 0.13 in /  3.3 mm
23:19 44.0 °F /  6.7 °C 42.4 °F /  5.8 °C 29.91 in /  1012.8 hPa ESE 1.2 mph /  1.9 km/h   94 % 0.13 in /  3.3 mm
23:24 43.9 °F /  6.6 °C 42.3 °F /  5.7 °C 29.91 in /  1012.8 hPa Calm     94 % 0.12 in /  3.05 mm
23:29 43.7 °F /  6.5 °C 42.1 °F /  5.6 °C 29.91 in /  1012.8 hPa ESE 1.2 mph /  1.9 km/h 1.2 mph /  1.9 km/h 94 % 0.11 in /  2.79 mm
23:34 43.6 °F /  6.4 °C 42.0 °F /  5.6 °C 29.91 in /  1012.8 hPa ESE 1.2 mph /  1.9 km/h 1.2 mph /  1.9 km/h 94 % 0.10 in /  2.54 mm
23:39 43.6 °F /  6.4 °C 42.0 °F /  5.6 °C 29.91 in /  1012.8 hPa ESE 1.2 mph /  1.9 km/h 1.2 mph /  1.9 km/h 94 % 0.10 in /  2.54 mm
23:44 43.5 °F /  6.4 °C 41.9 °F /  5.5 °C 29.91 in /  1012.8 hPa ESE 1.2 mph /  1.9 km/h   94 % 0.08 in /  2.03 mm
23:49 43.5 °F /  6.4 °C 41.9 °F /  5.5 °C 29.91 in /  1012.8 hPa Calm     94 % 0.08 in /  2.03 mm
23:54 43.5 °F /  6.4 °C 41.9 °F /  5.5 °C 29.91 in /  1012.8 hPa ESE 3.5 mph /  5.6 km/h 3.5 mph /  5.6 km/h 94 % 0.07 in /  1.78 mm
23:59 43.5 °F /  6.4 °C 41.9 °F /  5.5 °C 29.92 in /  1013.1 hPa Calm     94 % 0.06 in /  1.52 mm
Park Place, Exeter, Tulare County, California, USA
Compliments of Weather Underground - 2.75 mb